White Plains, VA

11:59 PM EDT on July 30, 2014 (GMT -0400)
Mecklenburg-Brunswick Regional (KAVC) Elev 443 ft | 36.69 °N, 78.05 °W | Change Station

Current weather conditions updated 24 minutes ago

Clear
Clear
64 °F
Feels Like 64 °F
N
0
Wind Variable Wind from North

Tomorrow is forecast to be Warmer than today.

Today
High -- | Low -- °F
--% Chance of Precip.
Yesterday
High -- | Low -- °F
Precip. -- in
6:16 AM 8:19 PM
Waxing Crescent, 15% visible
Pressure 30.13 in
Visibility 7.0 miles
Clouds Clear
Dew Point 64 °F
Humidity 100%
Rainfall 0.00 in
Snow Depth Not available.
UV 0 out of 12
Pollen 6.70 out of 12
Air Quality Not available.
Flu Activity Not available.
METAR KAVC 310335Z AUTO 00000KT 7SM CLR 18/18 A3013 RMK AO2

More Conditions Fewer Conditions

Pressure 30.13 in
Visibility 7.0 miles
Clouds Clear
Dew Point 64 °F
Humidity 100%
Rainfall 0.00 in
Snow Depth Not available.
UV 0 out of 12
Pollen 6.70 out of 12
Air Quality Not available.
Flu Activity Not available.
METAR KAVC 310335Z AUTO 00000KT 7SM CLR 18/18 A3013 RMK AO2

More Conditions Fewer Conditions

10-Day Weather Forecast

Almanac

Astronomy

Jul. 30, 2014 Rise Set
Actual Time 6:16 AM EDT 8:19 PM EDT
Civil Twilight 5:47 AM EDT 8:48 PM EDT
Nautical Twilight 5:12 AM EDT 9:23 PM EDT
Astronomical Twilight 4:34 AM EDT 10:00 PM EDT
Moon 9:38 AM EDT (7/30) 10:08 PM EDT (7/30)
Length of Visible Light 15h 00m
Length of Day
14h 03m
Tomorrow will be 1m 42s shorter.
Waxing Crescent, 15% of the Moon is Illuminated
Today
Waxing Crescent
Aug 3
First Quarter
Aug 10
Full
Aug 17
Last Quarter
Aug 25
New

Today's Extremes

State Highs State Lows

Community

WunderPhotos

Upload Photos

1,739,279 photos uploaded!

Nearby

Snow Depth

Station Depth Elevation
No new snow has been reported.

Earthquake Activity

City Distance Mag. Time & Date
No recent earthquake activity has been reported nearby.
Minimum magnitude displayed is 2.5.

Coastal Water Temperatures

Place Temperature
No Stations Reporting

Nearby Weather Stations

Station Location Temp. Dew Point Humidity Wind Precip. Elev Updated Type
Lake Gaston, Littleton, NC 66.3 °F 64 °F 94% NE  at  0.0 mph 0.00 in / hr 220 ft 11:56 PM EDT Normal
MATTHEWS MANORWOOD @ LAKE GASTON, Macon, NC 63.6 °F 63 °F 98% North  at  0.0 mph 0.00 in / hr 268 ft 11:55 PM EDT Normal
Near CMH, South Hill, VA 67.0 °F 64 °F 91% North  at  0.0 mph 0.00 in / hr 423 ft 11:55 PM EDT Normal
Roanoke Rapids Lake, Roanoke Rapids, NC 68.3 °F 66 °F 91% NW  at  0.0 mph 0.00 in / hr 138 ft 11:59 PM EDT Rapid Fire
Brink, Emporia, VA 67.4 °F 65 °F 93% SE  at  0.0 mph 0.00 in / hr 240 ft 11:56 PM EDT Normal
North View (Ponderosa Pines), South Hill, VA 64.4 °F 62 °F 92% SW  at  0.0 mph 0.00 in / hr 340 ft 11:55 PM EDT Normal
HADS JOHN H. KERR RESERVOIR NEAR BOYD VA, Baskerville, VA 71 °F - - North  at  - 0.00 in / hr 250 ft 10:15 PM EDT MADIS

Show More Stations Show Fewer Stations